sensor_id;sensor_type;location;lat;lon;timestamp;P1;durP1;ratioP1;P2;durP2;ratioP2
26822;SDS011;14852;51.910;8.878;2023-11-22T00:00:32;3.78;;;3.15;;
26822;SDS011;14852;51.910;8.878;2023-11-22T00:02:57;5.30;;;3.75;;
26822;SDS011;14852;51.910;8.878;2023-11-22T00:05:23;3.75;;;2.85;;
26822;SDS011;14852;51.910;8.878;2023-11-22T00:07:49;6.60;;;4.13;;
26822;SDS011;14852;51.910;8.878;2023-11-22T00:10:15;5.10;;;3.35;;
26822;SDS011;14852;51.910;8.878;2023-11-22T00:12:41;4.40;;;2.90;;
26822;SDS011;14852;51.910;8.878;2023-11-22T00:15:07;4.72;;;3.30;;
26822;SDS011;14852;51.910;8.878;2023-11-22T00:17:35;4.57;;;3.22;;
26822;SDS011;14852;51.910;8.878;2023-11-22T00:20:02;6.03;;;3.10;;
26822;SDS011;14852;51.910;8.878;2023-11-22T00:22:34;2.55;;;2.25;;
26822;SDS011;14852;51.910;8.878;2023-11-22T00:25:00;5.28;;;3.90;;
26822;SDS011;14852;51.910;8.878;2023-11-22T00:27:30;4.32;;;3.30;;
26822;SDS011;14852;51.910;8.878;2023-11-22T00:29:56;4.68;;;3.25;;
26822;SDS011;14852;51.910;8.878;2023-11-22T00:32:23;5.85;;;3.80;;
26822;SDS011;14852;51.910;8.878;2023-11-22T00:34:51;4.32;;;3.05;;
26822;SDS011;14852;51.910;8.878;2023-11-22T00:37:17;4.63;;;3.20;;
26822;SDS011;14852;51.910;8.878;2023-11-22T00:39:43;4.30;;;3.20;;
26822;SDS011;14852;51.910;8.878;2023-11-22T00:42:10;3.30;;;3.00;;
26822;SDS011;14852;51.910;8.878;2023-11-22T00:44:36;6.30;;;3.20;;
26822;SDS011;14852;51.910;8.878;2023-11-22T00:47:03;4.13;;;3.25;;
26822;SDS011;14852;51.910;8.878;2023-11-22T00:49:29;4.50;;;3.08;;
26822;SDS011;14852;51.910;8.878;2023-11-22T00:51:54;5.93;;;2.78;;
26822;SDS011;14852;51.910;8.878;2023-11-22T00:54:20;3.33;;;2.58;;
26822;SDS011;14852;51.910;8.878;2023-11-22T00:56:46;4.68;;;3.05;;
26822;SDS011;14852;51.910;8.878;2023-11-22T00:59:12;5.60;;;3.00;;
26822;SDS011;14852;51.910;8.878;2023-11-22T01:01:39;5.32;;;3.08;;
26822;SDS011;14852;51.910;8.878;2023-11-22T01:04:06;5.35;;;3.35;;
26822;SDS011;14852;51.910;8.878;2023-11-22T01:06:33;4.28;;;3.25;;
26822;SDS011;14852;51.910;8.878;2023-11-22T01:08:59;4.18;;;2.83;;
26822;SDS011;14852;51.910;8.878;2023-11-22T01:11:25;6.45;;;3.42;;
26822;SDS011;14852;51.910;8.878;2023-11-22T01:13:51;4.22;;;3.05;;
26822;SDS011;14852;51.910;8.878;2023-11-22T01:16:17;5.07;;;2.97;;
26822;SDS011;14852;51.910;8.878;2023-11-22T01:18:43;5.90;;;3.17;;
26822;SDS011;14852;51.910;8.878;2023-11-22T01:21:11;4.65;;;3.40;;
26822;SDS011;14852;51.910;8.878;2023-11-22T01:23:37;5.05;;;3.13;;
26822;SDS011;14852;51.910;8.878;2023-11-22T01:26:03;5.00;;;3.75;;
26822;SDS011;14852;51.910;8.878;2023-11-22T01:28:30;4.72;;;3.47;;
26822;SDS011;14852;51.910;8.878;2023-11-22T01:30:59;4.38;;;3.08;;
26822;SDS011;14852;51.910;8.878;2023-11-22T01:33:27;4.22;;;3.00;;
26822;SDS011;14852;51.910;8.878;2023-11-22T01:35:53;3.85;;;2.92;;
26822;SDS011;14852;51.910;8.878;2023-11-22T01:38:19;4.15;;;3.17;;
26822;SDS011;14852;51.910;8.878;2023-11-22T01:40:47;7.22;;;3.42;;
26822;SDS011;14852;51.910;8.878;2023-11-22T01:43:14;3.88;;;2.72;;
26822;SDS011;14852;51.910;8.878;2023-11-22T01:45:42;9.90;;;3.30;;
26822;SDS011;14852;51.910;8.878;2023-11-22T01:48:10;5.50;;;3.42;;
26822;SDS011;14852;51.910;8.878;2023-11-22T01:50:37;4.82;;;3.10;;
26822;SDS011;14852;51.910;8.878;2023-11-22T01:53:05;4.13;;;2.80;;
26822;SDS011;14852;51.910;8.878;2023-11-22T01:55:32;5.35;;;3.05;;
26822;SDS011;14852;51.910;8.878;2023-11-22T01:58:00;4.40;;;3.33;;
26822;SDS011;14852;51.910;8.878;2023-11-22T02:00:27;3.53;;;2.85;;
26822;SDS011;14852;51.910;8.878;2023-11-22T02:03:01;4.03;;;3.25;;
26822;SDS011;14852;51.910;8.878;2023-11-22T02:05:27;3.42;;;2.53;;
26822;SDS011;14852;51.910;8.878;2023-11-22T02:07:53;3.85;;;2.80;;
26822;SDS011;14852;51.910;8.878;2023-11-22T02:10:20;4.35;;;2.95;;
26822;SDS011;14852;51.910;8.878;2023-11-22T02:12:46;3.90;;;2.72;;
26822;SDS011;14852;51.910;8.878;2023-11-22T02:15:12;3.80;;;2.95;;
26822;SDS011;14852;51.910;8.878;2023-11-22T02:17:38;6.93;;;3.40;;
26822;SDS011;14852;51.910;8.878;2023-11-22T02:20:04;4.60;;;2.80;;
26822;SDS011;14852;51.910;8.878;2023-11-22T02:22:31;4.00;;;3.17;;
26822;SDS011;14852;51.910;8.878;2023-11-22T02:24:57;4.20;;;2.70;;
26822;SDS011;14852;51.910;8.878;2023-11-22T02:27:23;4.00;;;3.08;;
26822;SDS011;14852;51.910;8.878;2023-11-22T02:29:50;5.85;;;3.15;;
26822;SDS011;14852;51.910;8.878;2023-11-22T02:32:15;6.03;;;4.07;;
26822;SDS011;14852;51.910;8.878;2023-11-22T02:34:41;3.38;;;2.55;;
26822;SDS011;14852;51.910;8.878;2023-11-22T02:37:07;5.72;;;2.88;;
26822;SDS011;14852;51.910;8.878;2023-11-22T02:39:49;4.90;;;2.85;;
26822;SDS011;14852;51.910;8.878;2023-11-22T02:42:34;3.70;;;3.10;;
26822;SDS011;14852;51.910;8.878;2023-11-22T02:45:00;5.43;;;3.30;;
26822;SDS011;14852;51.910;8.878;2023-11-22T02:47:26;5.53;;;3.10;;
26822;SDS011;14852;51.910;8.878;2023-11-22T02:49:53;6.80;;;3.25;;
26822;SDS011;14852;51.910;8.878;2023-11-22T02:52:20;4.18;;;3.75;;
26822;SDS011;14852;51.910;8.878;2023-11-22T02:54:46;4.65;;;2.60;;
26822;SDS011;14852;51.910;8.878;2023-11-22T02:57:12;4.65;;;3.08;;
26822;SDS011;14852;51.910;8.878;2023-11-22T02:59:44;3.65;;;2.70;;
26822;SDS011;14852;51.910;8.878;2023-11-22T03:02:11;4.78;;;2.95;;
26822;SDS011;14852;51.910;8.878;2023-11-22T03:04:37;3.05;;;2.63;;
26822;SDS011;14852;51.910;8.878;2023-11-22T03:07:03;3.08;;;2.72;;
26822;SDS011;14852;51.910;8.878;2023-11-22T03:09:31;4.53;;;2.40;;
26822;SDS011;14852;51.910;8.878;2023-11-22T03:11:57;4.38;;;3.38;;
26822;SDS011;14852;51.910;8.878;2023-11-22T03:14:23;6.55;;;3.05;;
26822;SDS011;14852;51.910;8.878;2023-11-22T03:16:49;5.20;;;3.08;;
26822;SDS011;14852;51.910;8.878;2023-11-22T03:19:15;3.00;;;2.40;;
26822;SDS011;14852;51.910;8.878;2023-11-22T03:21:41;3.60;;;2.83;;
26822;SDS011;14852;51.910;8.878;2023-11-22T03:24:09;4.28;;;2.60;;
26822;SDS011;14852;51.910;8.878;2023-11-22T03:26:35;4.75;;;2.28;;
26822;SDS011;14852;51.910;8.878;2023-11-22T03:29:01;4.53;;;2.65;;
26822;SDS011;14852;51.910;8.878;2023-11-22T03:31:27;4.10;;;3.22;;
26822;SDS011;14852;51.910;8.878;2023-11-22T03:33:54;5.07;;;2.80;;
26822;SDS011;14852;51.910;8.878;2023-11-22T03:36:20;6.10;;;2.97;;
26822;SDS011;14852;51.910;8.878;2023-11-22T03:38:48;5.95;;;3.28;;
26822;SDS011;14852;51.910;8.878;2023-11-22T03:41:14;4.60;;;3.17;;
26822;SDS011;14852;51.910;8.878;2023-11-22T03:43:42;3.75;;;2.72;;
26822;SDS011;14852;51.910;8.878;2023-11-22T03:46:09;4.18;;;3.03;;
26822;SDS011;14852;51.910;8.878;2023-11-22T03:48:38;3.85;;;3.22;;
26822;SDS011;14852;51.910;8.878;2023-11-22T03:51:04;4.00;;;2.75;;
26822;SDS011;14852;51.910;8.878;2023-11-22T03:53:30;4.30;;;3.28;;
26822;SDS011;14852;51.910;8.878;2023-11-22T03:55:57;5.53;;;3.00;;
26822;SDS011;14852;51.910;8.878;2023-11-22T03:58:23;4.90;;;2.75;;
26822;SDS011;14852;51.910;8.878;2023-11-22T04:00:51;5.13;;;2.75;;
26822;SDS011;14852;51.910;8.878;2023-11-22T04:03:17;5.15;;;3.20;;
26822;SDS011;14852;51.910;8.878;2023-11-22T04:05:44;4.57;;;2.70;;
26822;SDS011;14852;51.910;8.878;2023-11-22T04:08:10;3.53;;;2.47;;
26822;SDS011;14852;51.910;8.878;2023-11-22T04:10:36;4.45;;;3.00;;
26822;SDS011;14852;51.910;8.878;2023-11-22T04:13:02;4.15;;;2.67;;
26822;SDS011;14852;51.910;8.878;2023-11-22T04:15:27;4.97;;;2.75;;
26822;SDS011;14852;51.910;8.878;2023-11-22T04:17:53;4.57;;;3.10;;
26822;SDS011;14852;51.910;8.878;2023-11-22T04:20:20;5.00;;;3.28;;
26822;SDS011;14852;51.910;8.878;2023-11-22T04:22:46;5.78;;;3.65;;
26822;SDS011;14852;51.910;8.878;2023-11-22T04:25:12;3.78;;;3.15;;
26822;SDS011;14852;51.910;8.878;2023-11-22T04:27:40;7.20;;;3.70;;
26822;SDS011;14852;51.910;8.878;2023-11-22T04:30:07;5.18;;;3.67;;
26822;SDS011;14852;51.910;8.878;2023-11-22T04:32:39;5.13;;;3.40;;
26822;SDS011;14852;51.910;8.878;2023-11-22T04:35:07;4.13;;;2.67;;
26822;SDS011;14852;51.910;8.878;2023-11-22T04:37:34;4.90;;;3.38;;
26822;SDS011;14852;51.910;8.878;2023-11-22T04:40:02;4.97;;;2.95;;
26822;SDS011;14852;51.910;8.878;2023-11-22T04:42:32;3.95;;;2.85;;
26822;SDS011;14852;51.910;8.878;2023-11-22T04:45:01;5.68;;;3.53;;
26822;SDS011;14852;51.910;8.878;2023-11-22T04:47:28;4.18;;;3.50;;
26822;SDS011;14852;51.910;8.878;2023-11-22T04:49:54;5.78;;;2.97;;
26822;SDS011;14852;51.910;8.878;2023-11-22T04:52:20;3.65;;;2.72;;
26822;SDS011;14852;51.910;8.878;2023-11-22T04:54:46;3.50;;;2.40;;
26822;SDS011;14852;51.910;8.878;2023-11-22T04:57:12;4.90;;;3.10;;
26822;SDS011;14852;51.910;8.878;2023-11-22T04:59:38;7.43;;;3.13;;
26822;SDS011;14852;51.910;8.878;2023-11-22T05:02:05;3.78;;;2.63;;
26822;SDS011;14852;51.910;8.878;2023-11-22T05:04:32;5.30;;;3.15;;
26822;SDS011;14852;51.910;8.878;2023-11-22T05:06:58;3.63;;;2.85;;
26822;SDS011;14852;51.910;8.878;2023-11-22T05:09:24;5.78;;;4.07;;
26822;SDS011;14852;51.910;8.878;2023-11-22T05:11:50;4.25;;;3.22;;
26822;SDS011;14852;51.910;8.878;2023-11-22T05:14:17;4.72;;;3.45;;
26822;SDS011;14852;51.910;8.878;2023-11-22T05:16:43;5.18;;;3.92;;
26822;SDS011;14852;51.910;8.878;2023-11-22T05:19:09;6.05;;;3.83;;
26822;SDS011;14852;51.910;8.878;2023-11-22T05:21:35;5.00;;;3.75;;
26822;SDS011;14852;51.910;8.878;2023-11-22T05:24:01;4.88;;;3.08;;
26822;SDS011;14852;51.910;8.878;2023-11-22T05:26:27;5.82;;;3.90;;
26822;SDS011;14852;51.910;8.878;2023-11-22T05:28:53;5.82;;;3.35;;
26822;SDS011;14852;51.910;8.878;2023-11-22T05:31:22;4.15;;;2.88;;
26822;SDS011;14852;51.910;8.878;2023-11-22T05:33:48;5.60;;;3.22;;
26822;SDS011;14852;51.910;8.878;2023-11-22T05:36:14;4.88;;;2.53;;
26822;SDS011;14852;51.910;8.878;2023-11-22T05:38:42;3.30;;;2.45;;
26822;SDS011;14852;51.910;8.878;2023-11-22T05:41:08;4.82;;;2.95;;
26822;SDS011;14852;51.910;8.878;2023-11-22T05:43:34;4.15;;;3.03;;
26822;SDS011;14852;51.910;8.878;2023-11-22T05:46:04;3.67;;;2.70;;
26822;SDS011;14852;51.910;8.878;2023-11-22T05:48:31;3.65;;;2.85;;
26822;SDS011;14852;51.910;8.878;2023-11-22T05:50:56;6.40;;;3.13;;
26822;SDS011;14852;51.910;8.878;2023-11-22T05:53:22;5.35;;;2.85;;
26822;SDS011;14852;51.910;8.878;2023-11-22T05:55:48;3.75;;;2.53;;
26822;SDS011;14852;51.910;8.878;2023-11-22T05:58:15;3.38;;;2.88;;
26822;SDS011;14852;51.910;8.878;2023-11-22T06:00:51;4.00;;;2.90;;
26822;SDS011;14852;51.910;8.878;2023-11-22T06:03:17;3.47;;;2.60;;
26822;SDS011;14852;51.910;8.878;2023-11-22T06:05:43;3.38;;;2.40;;
26822;SDS011;14852;51.910;8.878;2023-11-22T06:08:08;4.65;;;2.95;;
26822;SDS011;14852;51.910;8.878;2023-11-22T06:10:34;3.67;;;2.90;;
26822;SDS011;14852;51.910;8.878;2023-11-22T06:13:00;3.35;;;2.42;;
26822;SDS011;14852;51.910;8.878;2023-11-22T06:15:26;4.53;;;2.40;;
26822;SDS011;14852;51.910;8.878;2023-11-22T06:17:51;7.00;;;3.83;;
26822;SDS011;14852;51.910;8.878;2023-11-22T06:20:17;6.45;;;3.00;;
26822;SDS011;14852;51.910;8.878;2023-11-22T06:22:43;6.38;;;2.97;;
26822;SDS011;14852;51.910;8.878;2023-11-22T06:25:09;3.22;;;2.30;;
26822;SDS011;14852;51.910;8.878;2023-11-22T06:27:36;3.80;;;2.88;;
26822;SDS011;14852;51.910;8.878;2023-11-22T06:30:02;3.97;;;2.80;;
26822;SDS011;14852;51.910;8.878;2023-11-22T06:32:29;5.30;;;3.00;;
26822;SDS011;14852;51.910;8.878;2023-11-22T06:34:55;5.03;;;3.03;;
26822;SDS011;14852;51.910;8.878;2023-11-22T06:37:20;4.97;;;3.47;;
26822;SDS011;14852;51.910;8.878;2023-11-22T06:39:46;7.10;;;4.10;;
26822;SDS011;14852;51.910;8.878;2023-11-22T06:42:12;5.32;;;3.60;;
26822;SDS011;14852;51.910;8.878;2023-11-22T06:44:38;8.18;;;4.93;;
26822;SDS011;14852;51.910;8.878;2023-11-22T06:47:05;8.45;;;4.47;;
26822;SDS011;14852;51.910;8.878;2023-11-22T06:49:32;6.68;;;5.07;;
26822;SDS011;14852;51.910;8.878;2023-11-22T06:51:58;8.25;;;4.70;;
26822;SDS011;14852;51.910;8.878;2023-11-22T06:54:25;6.85;;;5.18;;
26822;SDS011;14852;51.910;8.878;2023-11-22T06:56:51;7.97;;;4.40;;
26822;SDS011;14852;51.910;8.878;2023-11-22T06:59:18;6.22;;;4.72;;
26822;SDS011;14852;51.910;8.878;2023-11-22T07:01:44;5.68;;;4.38;;
26822;SDS011;14852;51.910;8.878;2023-11-22T07:04:10;5.28;;;4.00;;
26822;SDS011;14852;51.910;8.878;2023-11-22T07:06:36;6.43;;;3.92;;
26822;SDS011;14852;51.910;8.878;2023-11-22T07:09:03;5.68;;;4.07;;
26822;SDS011;14852;51.910;8.878;2023-11-22T07:11:29;6.47;;;4.45;;
26822;SDS011;14852;51.910;8.878;2023-11-22T07:13:56;4.90;;;3.92;;
26822;SDS011;14852;51.910;8.878;2023-11-22T07:16:25;5.97;;;3.70;;
26822;SDS011;14852;51.910;8.878;2023-11-22T07:18:51;4.47;;;3.42;;
26822;SDS011;14852;51.910;8.878;2023-11-22T07:21:17;5.45;;;3.92;;
26822;SDS011;14852;51.910;8.878;2023-11-22T07:23:42;6.75;;;3.85;;
26822;SDS011;14852;51.910;8.878;2023-11-22T07:26:10;5.60;;;3.63;;
26822;SDS011;14852;51.910;8.878;2023-11-22T07:28:39;6.65;;;4.13;;
26822;SDS011;14852;51.910;8.878;2023-11-22T07:31:07;5.05;;;3.67;;
26822;SDS011;14852;51.910;8.878;2023-11-22T07:33:34;6.28;;;3.97;;
26822;SDS011;14852;51.910;8.878;2023-11-22T07:36:00;6.82;;;4.70;;
26822;SDS011;14852;51.910;8.878;2023-11-22T07:38:28;8.13;;;4.55;;
26822;SDS011;14852;51.910;8.878;2023-11-22T07:40:54;7.03;;;4.68;;
26822;SDS011;14852;51.910;8.878;2023-11-22T07:43:21;6.25;;;4.18;;
26822;SDS011;14852;51.910;8.878;2023-11-22T07:45:47;7.50;;;4.13;;
26822;SDS011;14852;51.910;8.878;2023-11-22T07:48:15;7.03;;;4.80;;
26822;SDS011;14852;51.910;8.878;2023-11-22T07:50:41;6.15;;;4.18;;
26822;SDS011;14852;51.910;8.878;2023-11-22T07:53:10;5.63;;;3.83;;
26822;SDS011;14852;51.910;8.878;2023-11-22T07:55:40;6.63;;;4.47;;
26822;SDS011;14852;51.910;8.878;2023-11-22T07:58:07;7.97;;;5.00;;
26822;SDS011;14852;51.910;8.878;2023-11-22T08:00:33;5.28;;;4.05;;
26822;SDS011;14852;51.910;8.878;2023-11-22T08:03:00;5.78;;;3.97;;
26822;SDS011;14852;51.910;8.878;2023-11-22T08:05:29;5.78;;;5.05;;
26822;SDS011;14852;51.910;8.878;2023-11-22T08:08:00;6.97;;;4.72;;
26822;SDS011;14852;51.910;8.878;2023-11-22T08:10:33;6.63;;;4.50;;
26822;SDS011;14852;51.910;8.878;2023-11-22T08:13:00;9.07;;;4.00;;
26822;SDS011;14852;51.910;8.878;2023-11-22T08:15:27;8.02;;;4.80;;
26822;SDS011;14852;51.910;8.878;2023-11-22T08:17:53;8.95;;;5.78;;
26822;SDS011;14852;51.910;8.878;2023-11-22T08:20:19;10.73;;;7.72;;
26822;SDS011;14852;51.910;8.878;2023-11-22T08:22:45;12.02;;;8.48;;
26822;SDS011;14852;51.910;8.878;2023-11-22T08:25:14;8.38;;;6.25;;
26822;SDS011;14852;51.910;8.878;2023-11-22T08:27:40;6.82;;;5.13;;
26822;SDS011;14852;51.910;8.878;2023-11-22T08:30:10;7.22;;;5.22;;
26822;SDS011;14852;51.910;8.878;2023-11-22T08:32:43;7.40;;;5.13;;
26822;SDS011;14852;51.910;8.878;2023-11-22T08:35:16;6.95;;;5.07;;
26822;SDS011;14852;51.910;8.878;2023-11-22T08:37:42;9.98;;;6.05;;
26822;SDS011;14852;51.910;8.878;2023-11-22T08:40:09;9.65;;;5.85;;
26822;SDS011;14852;51.910;8.878;2023-11-22T08:42:43;6.35;;;4.53;;
26822;SDS011;14852;51.910;8.878;2023-11-22T08:45:09;9.23;;;5.07;;
26822;SDS011;14852;51.910;8.878;2023-11-22T08:47:36;6.13;;;4.93;;
26822;SDS011;14852;51.910;8.878;2023-11-22T08:50:07;7.65;;;5.90;;
26822;SDS011;14852;51.910;8.878;2023-11-22T08:52:36;10.25;;;6.78;;
26822;SDS011;14852;51.910;8.878;2023-11-22T08:55:03;9.23;;;6.95;;
26822;SDS011;14852;51.910;8.878;2023-11-22T08:57:33;7.03;;;5.10;;
26822;SDS011;14852;51.910;8.878;2023-11-22T09:00:03;7.03;;;5.90;;
26822;SDS011;14852;51.910;8.878;2023-11-22T09:02:34;7.00;;;5.22;;
26822;SDS011;14852;51.910;8.878;2023-11-22T09:05:04;7.00;;;4.70;;
26822;SDS011;14852;51.910;8.878;2023-11-22T09:07:33;7.18;;;4.82;;
26822;SDS011;14852;51.910;8.878;2023-11-22T09:10:01;17.30;;;6.15;;
26822;SDS011;14852;51.910;8.878;2023-11-22T09:12:35;7.47;;;5.80;;
26822;SDS011;14852;51.910;8.878;2023-11-22T09:15:04;8.23;;;5.78;;
26822;SDS011;14852;51.910;8.878;2023-11-22T09:17:35;9.57;;;4.85;;
26822;SDS011;14852;51.910;8.878;2023-11-22T09:20:11;5.13;;;4.20;;
26822;SDS011;14852;51.910;8.878;2023-11-22T09:22:48;6.38;;;3.78;;
26822;SDS011;14852;51.910;8.878;2023-11-22T09:25:18;4.93;;;3.42;;
26822;SDS011;14852;51.910;8.878;2023-11-22T09:27:54;4.03;;;3.35;;
26822;SDS011;14852;51.910;8.878;2023-11-22T09:30:24;5.00;;;3.60;;
26822;SDS011;14852;51.910;8.878;2023-11-22T09:33:07;3.30;;;2.50;;
26822;SDS011;14852;51.910;8.878;2023-11-22T09:35:35;4.78;;;3.55;;
26822;SDS011;14852;51.910;8.878;2023-11-22T09:38:06;4.57;;;3.30;;
26822;SDS011;14852;51.910;8.878;2023-11-22T09:40:47;4.90;;;3.40;;
26822;SDS011;14852;51.910;8.878;2023-11-22T09:43:17;5.35;;;3.45;;
26822;SDS011;14852;51.910;8.878;2023-11-22T09:45:45;4.78;;;2.95;;
26822;SDS011;14852;51.910;8.878;2023-11-22T09:48:18;4.32;;;2.85;;
26822;SDS011;14852;51.910;8.878;2023-11-22T09:56:08;4.50;;;2.35;;
26822;SDS011;14852;51.910;8.878;2023-11-22T09:58:41;4.35;;;2.45;;
26822;SDS011;14852;51.910;8.878;2023-11-22T10:01:10;3.35;;;2.30;;
26822;SDS011;14852;51.910;8.878;2023-11-22T10:03:36;3.58;;;2.55;;
26822;SDS011;14852;51.910;8.878;2023-11-22T10:06:03;3.92;;;2.45;;
26822;SDS011;14852;51.910;8.878;2023-11-22T10:08:29;4.97;;;2.70;;
26822;SDS011;14852;51.910;8.878;2023-11-22T10:10:56;4.03;;;2.97;;
26822;SDS011;14852;51.910;8.878;2023-11-22T10:13:23;3.53;;;2.40;;
26822;SDS011;14852;51.910;8.878;2023-11-22T10:15:49;3.45;;;2.42;;
26822;SDS011;14852;51.910;8.878;2023-11-22T10:18:16;4.93;;;2.38;;
26822;SDS011;14852;51.910;8.878;2023-11-22T10:20:43;4.30;;;2.60;;
26822;SDS011;14852;51.910;8.878;2023-11-22T10:23:12;3.45;;;2.55;;
26822;SDS011;14852;51.910;8.878;2023-11-22T10:25:46;3.25;;;2.42;;
26822;SDS011;14852;51.910;8.878;2023-11-22T10:28:18;3.25;;;2.50;;
26822;SDS011;14852;51.910;8.878;2023-11-22T10:30:49;3.08;;;2.30;;
26822;SDS011;14852;51.910;8.878;2023-11-22T10:33:16;2.75;;;2.30;;
26822;SDS011;14852;51.910;8.878;2023-11-22T10:35:48;2.83;;;2.25;;
26822;SDS011;14852;51.910;8.878;2023-11-22T10:38:18;3.10;;;2.00;;
26822;SDS011;14852;51.910;8.878;2023-11-22T10:40:46;4.05;;;2.30;;
26822;SDS011;14852;51.910;8.878;2023-11-22T10:43:13;3.28;;;2.53;;
26822;SDS011;14852;51.910;8.878;2023-11-22T10:45:42;4.75;;;2.95;;
26822;SDS011;14852;51.910;8.878;2023-11-22T10:48:11;3.05;;;2.30;;
26822;SDS011;14852;51.910;8.878;2023-11-22T10:50:44;3.95;;;2.67;;
26822;SDS011;14852;51.910;8.878;2023-11-22T10:53:11;3.65;;;2.80;;
26822;SDS011;14852;51.910;8.878;2023-11-22T10:55:50;5.10;;;2.33;;
26822;SDS011;14852;51.910;8.878;2023-11-22T10:58:27;3.60;;;2.60;;
26822;SDS011;14852;51.910;8.878;2023-11-22T11:00:57;3.45;;;2.80;;
26822;SDS011;14852;51.910;8.878;2023-11-22T11:03:25;3.05;;;2.25;;
26822;SDS011;14852;51.910;8.878;2023-11-22T11:06:00;3.95;;;2.50;;
26822;SDS011;14852;51.910;8.878;2023-11-22T11:10:55;3.58;;;2.40;;
26822;SDS011;14852;51.910;8.878;2023-11-22T11:13:23;3.50;;;2.33;;
26822;SDS011;14852;51.910;8.878;2023-11-22T11:15:49;3.13;;;2.03;;
26822;SDS011;14852;51.910;8.878;2023-11-22T11:18:18;4.45;;;2.30;;
26822;SDS011;14852;51.910;8.878;2023-11-22T11:20:51;3.95;;;2.58;;
26822;SDS011;14852;51.910;8.878;2023-11-22T11:23:20;2.95;;;2.22;;
26822;SDS011;14852;51.910;8.878;2023-11-22T11:28:22;4.28;;;2.58;;
26822;SDS011;14852;51.910;8.878;2023-11-22T11:30:52;3.58;;;2.50;;
26822;SDS011;14852;51.910;8.878;2023-11-22T11:33:26;2.33;;;1.90;;
26822;SDS011;14852;51.910;8.878;2023-11-22T11:35:57;2.72;;;1.90;;
26822;SDS011;14852;51.910;8.878;2023-11-22T11:38:26;3.38;;;2.40;;
26822;SDS011;14852;51.910;8.878;2023-11-22T11:41:05;3.90;;;2.20;;
26822;SDS011;14852;51.910;8.878;2023-11-22T11:43:40;2.95;;;2.05;;
26822;SDS011;14852;51.910;8.878;2023-11-22T11:46:07;2.55;;;1.85;;
26822;SDS011;14852;51.910;8.878;2023-11-22T11:48:35;3.15;;;2.38;;
26822;SDS011;14852;51.910;8.878;2023-11-22T11:51:01;2.75;;;2.33;;
26822;SDS011;14852;51.910;8.878;2023-11-22T11:53:27;2.72;;;2.10;;
26822;SDS011;14852;51.910;8.878;2023-11-22T11:55:53;2.47;;;1.92;;
26822;SDS011;14852;51.910;8.878;2023-11-22T11:58:19;3.72;;;2.65;;
26822;SDS011;14852;51.910;8.878;2023-11-22T12:00:45;4.80;;;2.03;;
26822;SDS011;14852;51.910;8.878;2023-11-22T12:03:11;3.15;;;2.35;;
26822;SDS011;14852;51.910;8.878;2023-11-22T12:05:37;3.25;;;2.40;;
26822;SDS011;14852;51.910;8.878;2023-11-22T12:08:04;3.72;;;2.55;;
26822;SDS011;14852;51.910;8.878;2023-11-22T12:10:30;5.25;;;1.95;;
26822;SDS011;14852;51.910;8.878;2023-11-22T12:12:56;3.67;;;2.38;;
26822;SDS011;14852;51.910;8.878;2023-11-22T12:15:24;3.65;;;2.28;;
26822;SDS011;14852;51.910;8.878;2023-11-22T12:17:50;3.20;;;2.25;;
26822;SDS011;14852;51.910;8.878;2023-11-22T12:20:17;3.75;;;2.42;;
26822;SDS011;14852;51.910;8.878;2023-11-22T12:22:46;5.32;;;2.15;;
26822;SDS011;14852;51.910;8.878;2023-11-22T12:25:13;3.65;;;2.50;;
26822;SDS011;14852;51.910;8.878;2023-11-22T12:27:40;3.70;;;2.10;;
26822;SDS011;14852;51.910;8.878;2023-11-22T12:30:08;3.78;;;2.55;;
26822;SDS011;14852;51.910;8.878;2023-11-22T12:32:39;3.35;;;2.65;;
26822;SDS011;14852;51.910;8.878;2023-11-22T12:35:06;3.15;;;2.30;;
26822;SDS011;14852;51.910;8.878;2023-11-22T12:37:33;3.65;;;2.40;;
26822;SDS011;14852;51.910;8.878;2023-11-22T12:40:06;3.88;;;2.72;;
26822;SDS011;14852;51.910;8.878;2023-11-22T12:42:45;3.97;;;2.40;;
26822;SDS011;14852;51.910;8.878;2023-11-22T12:45:19;2.95;;;2.35;;
26822;SDS011;14852;51.910;8.878;2023-11-22T12:47:48;2.88;;;2.20;;
26822;SDS011;14852;51.910;8.878;2023-11-22T12:53:13;2.70;;;2.08;;
26822;SDS011;14852;51.910;8.878;2023-11-22T12:55:46;4.15;;;2.47;;
26822;SDS011;14852;51.910;8.878;2023-11-22T12:58:18;3.15;;;2.33;;
26822;SDS011;14852;51.910;8.878;2023-11-22T13:00:45;2.55;;;1.83;;
26822;SDS011;14852;51.910;8.878;2023-11-22T13:03:13;3.15;;;2.10;;
26822;SDS011;14852;51.910;8.878;2023-11-22T13:05:39;4.20;;;2.22;;
26822;SDS011;14852;51.910;8.878;2023-11-22T13:08:08;3.80;;;2.20;;
26822;SDS011;14852;51.910;8.878;2023-11-22T13:10:45;4.93;;;2.25;;
26822;SDS011;14852;51.910;8.878;2023-11-22T13:13:14;4.82;;;2.47;;
26822;SDS011;14852;51.910;8.878;2023-11-22T13:15:39;2.97;;;1.80;;
26822;SDS011;14852;51.910;8.878;2023-11-22T13:18:08;3.83;;;2.53;;
26822;SDS011;14852;51.910;8.878;2023-11-22T13:20:34;3.22;;;2.22;;
26822;SDS011;14852;51.910;8.878;2023-11-22T13:23:00;3.17;;;1.73;;
26822;SDS011;14852;51.910;8.878;2023-11-22T13:25:27;2.60;;;1.98;;
26822;SDS011;14852;51.910;8.878;2023-11-22T13:27:53;3.03;;;2.05;;
26822;SDS011;14852;51.910;8.878;2023-11-22T13:30:22;3.85;;;2.05;;
26822;SDS011;14852;51.910;8.878;2023-11-22T13:32:51;2.75;;;1.98;;
26822;SDS011;14852;51.910;8.878;2023-11-22T13:35:19;2.50;;;1.92;;
26822;SDS011;14852;51.910;8.878;2023-11-22T13:37:47;3.28;;;2.13;;
26822;SDS011;14852;51.910;8.878;2023-11-22T13:40:17;2.22;;;2.03;;
26822;SDS011;14852;51.910;8.878;2023-11-22T13:42:47;2.35;;;1.65;;
26822;SDS011;14852;51.910;8.878;2023-11-22T13:45:19;3.10;;;2.33;;
26822;SDS011;14852;51.910;8.878;2023-11-22T13:47:52;2.75;;;2.10;;
26822;SDS011;14852;51.910;8.878;2023-11-22T13:50:23;3.80;;;2.42;;
26822;SDS011;14852;51.910;8.878;2023-11-22T13:52:51;3.72;;;3.22;;
26822;SDS011;14852;51.910;8.878;2023-11-22T13:55:18;3.97;;;3.30;;
26822;SDS011;14852;51.910;8.878;2023-11-22T13:57:52;2.58;;;2.17;;
26822;SDS011;14852;51.910;8.878;2023-11-22T14:00:19;5.43;;;3.03;;
26822;SDS011;14852;51.910;8.878;2023-11-22T14:02:52;3.67;;;2.75;;
26822;SDS011;14852;51.910;8.878;2023-11-22T14:05:25;3.83;;;2.60;;
26822;SDS011;14852;51.910;8.878;2023-11-22T14:07:52;3.88;;;3.42;;
26822;SDS011;14852;51.910;8.878;2023-11-22T14:10:21;4.03;;;3.15;;
26822;SDS011;14852;51.910;8.878;2023-11-22T14:12:50;6.57;;;2.92;;
26822;SDS011;14852;51.910;8.878;2023-11-22T14:15:16;4.80;;;2.90;;
26822;SDS011;14852;51.910;8.878;2023-11-22T14:17:44;5.32;;;2.80;;
26822;SDS011;14852;51.910;8.878;2023-11-22T14:20:14;3.30;;;2.38;;
26822;SDS011;14852;51.910;8.878;2023-11-22T14:22:40;3.33;;;2.72;;
26822;SDS011;14852;51.910;8.878;2023-11-22T14:25:07;3.47;;;3.00;;
26822;SDS011;14852;51.910;8.878;2023-11-22T14:27:39;4.78;;;2.92;;
26822;SDS011;14852;51.910;8.878;2023-11-22T14:30:09;6.53;;;3.17;;
26822;SDS011;14852;51.910;8.878;2023-11-22T14:32:39;5.28;;;3.03;;
26822;SDS011;14852;51.910;8.878;2023-11-22T14:35:05;4.07;;;3.35;;
26822;SDS011;14852;51.910;8.878;2023-11-22T14:37:33;3.67;;;2.92;;
26822;SDS011;14852;51.910;8.878;2023-11-22T14:39:59;3.75;;;3.35;;
26822;SDS011;14852;51.910;8.878;2023-11-22T14:42:25;4.22;;;2.88;;
26822;SDS011;14852;51.910;8.878;2023-11-22T14:44:52;5.50;;;2.85;;
26822;SDS011;14852;51.910;8.878;2023-11-22T14:47:19;4.80;;;3.30;;
26822;SDS011;14852;51.910;8.878;2023-11-22T14:49:48;4.03;;;3.15;;
26822;SDS011;14852;51.910;8.878;2023-11-22T14:52:14;5.70;;;2.72;;
26822;SDS011;14852;51.910;8.878;2023-11-22T14:54:41;4.93;;;3.22;;
26822;SDS011;14852;51.910;8.878;2023-11-22T14:57:10;4.22;;;2.58;;
26822;SDS011;14852;51.910;8.878;2023-11-22T14:59:37;3.88;;;3.03;;
26822;SDS011;14852;51.910;8.878;2023-11-22T15:02:04;5.43;;;3.22;;
26822;SDS011;14852;51.910;8.878;2023-11-22T15:04:34;4.90;;;3.28;;